^^
Station Historical Data
 
Daily Summary for October 20, 2019 Units:  English    Metric   Both
Daily Weekly Monthly Yearly Custom
  Current: High: Low: Average:
Temperature: 64.2 °F 65.8 °F 0.00 °F 50.1 °F
Dew Point: 54.3 °F 55.6 °F 0.00 °F 47.3 °F
Humidity: 70% 98% % 87%
Wind Speed: 7.4mph 12.8mph 0mph 2.2mph
Wind Gust: 16mph 19mph - -
WindESE - - SSE
Pressure: 29.66 in 29.81 in 29.66 in -
Precipitation: 0.01 in      
Historical Graphs
 
 
Tabular Data for October 20, 2019
Time Temperature Dew Point Pressure Wind Wind Speed Wind Gust Humidity Rainfall Rate (Hourly) solar
00:04 48.7 °F 46.8 °F 29.79 in Calm     93% 0 in meteobridge W/m2
00:09 48.7 °F 46.8 °F 29.78 in Calm     93% 0 in meteobridge W/m2
00:14 48.4 °F 46.4 °F 29.78 in Calm     93% 0 in meteobridge W/m2
00:19 48.4 °F 46.4 °F 29.78 in Calm   -999 mph 93% 0 in meteobridge W/m2
00:24 0.00 °F 0.00 °F 29.78 in Calm   -999 mph % 0 in meteobridge W/m2
00:29 0.00 °F 0.00 °F 29.78 in Calm   -999 mph % 0 in meteobridge W/m2
00:34 0.00 °F 0.00 °F 29.77 in Calm   -999 mph % 0 in meteobridge W/m2
00:39 48 °F 46.4 °F 29.78 in South 1.1 mph 3 mph 94% 0 in meteobridge W/m2
00:44 48 °F 46.4 °F 29.77 in Calm   2 mph 94% 0 in meteobridge W/m2
00:49 48 °F 46.4 °F 29.77 in South 2 mph 2 mph 94% 0 in meteobridge W/m2
00:54 48 °F 46.4 °F 29.77 in SSE 1.1 mph 2 mph 94% 0 in meteobridge W/m2
00:59 48 °F 46.4 °F 29.78 in Calm     94% 0 in meteobridge W/m2
01:04 48 °F 46.4 °F 29.77 in Calm     94% 0 in meteobridge W/m2
01:09 48 °F 46.4 °F 29.77 in Calm     94% 0 in meteobridge W/m2
01:14 47.8 °F 46.2 °F 29.77 in Calm     94% 0 in meteobridge W/m2
01:19 47.8 °F 46.2 °F 29.77 in Calm     94% 0 in meteobridge W/m2
01:24 47.8 °F 46.2 °F 29.77 in SSE 1.1 mph 1 mph 94% 0 in meteobridge W/m2
01:29 47.8 °F 46.2 °F 29.77 in SSE 1.1 mph 2 mph 94% 0 in meteobridge W/m2
01:34 47.8 °F 46.2 °F 29.77 in Calm     94% 0 in meteobridge W/m2
01:39 47.8 °F 46.2 °F 29.77 in SSE 1.1 mph 2 mph 94% 0 in meteobridge W/m2
01:44 48.2 °F 46.8 °F 29.77 in South 3.1 mph 4 mph 95% 0 in meteobridge W/m2
01:49 48.6 °F 47.1 °F 29.77 in SSE 3.1 mph 4 mph 95% 0 in meteobridge W/m2
01:54 48.9 °F 47.5 °F 29.78 in SSE 2 mph -999 mph 95% 0 in meteobridge W/m2
02:00 49.6 °F 48.6 °F 29.77 in SSE 3.1 mph 4 mph 96% 0 in meteobridge W/m2
02:05 49.8 °F 48.7 °F 29.77 in SSE 3.1 mph 4 mph 96% 0 in meteobridge W/m2
02:10 50.2 °F 49.1 °F 29.77 in Calm   1 mph 96% 0 in meteobridge W/m2
02:15 50.4 °F 49.3 °F 29.77 in SSE 1.1 mph 3 mph 96% 0 in meteobridge W/m2
02:20 50.4 °F 49.3 °F 29.77 in Calm   2 mph 96% 0 in meteobridge W/m2
02:25 50.4 °F 49.3 °F 29.77 in SSE 1.1 mph 2 mph 96% 0 in meteobridge W/m2
02:30 50.2 °F 49.1 °F 29.77 in SSE 1.1 mph 2 mph 96% 0 in meteobridge W/m2
02:35 50.2 °F 49.1 °F 29.77 in Calm     96% 0 in meteobridge W/m2
02:40 49.8 °F 48.7 °F 29.77 in SSE 2 mph 2 mph 96% 0 in meteobridge W/m2
02:45 49.8 °F 48.7 °F 29.77 in Calm   1 mph 96% 0 in meteobridge W/m2
02:50 49.6 °F 48.6 °F 29.77 in Calm     96% 0 in meteobridge W/m2
02:55 49.6 °F 48.6 °F 29.77 in Calm   1 mph 96% 0 in meteobridge W/m2
03:00 49.5 °F 48 °F 29.77 in SSE 2 mph 2 mph 95% 0 in meteobridge W/m2
03:05 49.3 °F 47.8 °F 29.77 in SSE 2 mph 3 mph 95% 0 in meteobridge W/m2
03:10 48.9 °F 47.8 °F 29.77 in SSE 2 mph 3 mph 96% 0 in meteobridge W/m2
03:15 48.9 °F 47.8 °F 29.77 in South 1.1 mph 3 mph 96% 0 in meteobridge W/m2
03:20 49.5 °F 48.4 °F 29.77 in South 4.3 mph 4 mph 96% 0 in meteobridge W/m2
03:25 49.6 °F 48.6 °F 29.77 in South 2 mph 4 mph 96% 0 in meteobridge W/m2
03:30 49.8 °F 48.7 °F 29.77 in South 2 mph 3 mph 96% 0 in meteobridge W/m2
03:35 49.8 °F 48.7 °F 29.77 in SSW 1.1 mph 1 mph 96% 0 in meteobridge W/m2
03:40 49.8 °F 48.7 °F 29.77 in SSW 2 mph 3 mph 96% 0 in meteobridge W/m2
03:45 49.8 °F 48.7 °F 29.77 in South 1.1 mph 2 mph 96% 0 in meteobridge W/m2
03:50 49.6 °F 48.6 °F 29.77 in Calm   2 mph 96% 0 in meteobridge W/m2
03:55 49.6 °F 48.6 °F 29.77 in Calm   1 mph 96% 0 in meteobridge W/m2
04:00 49.6 °F 48.6 °F 29.77 in South 1.1 mph 1 mph 96% 0 in meteobridge W/m2
04:05 49.6 °F 48.6 °F 29.77 in Calm     96% 0 in meteobridge W/m2
04:10 49.5 °F 48.4 °F 29.77 in Calm     96% 0 in meteobridge W/m2
04:15 49.3 °F 48.2 °F 29.77 in Calm     96% 0 in meteobridge W/m2
04:20 49.3 °F 48.2 °F 29.76 in Calm     96% 0 in meteobridge W/m2
04:25 48.9 °F 47.8 °F 29.77 in Calm     96% 0 in meteobridge W/m2
04:30 48.7 °F 47.7 °F 29.77 in Calm     96% 0 in meteobridge W/m2
04:35 48.6 °F 47.5 °F 29.77 in Calm     96% 0 in meteobridge W/m2
04:40 48.6 °F 47.5 °F 29.77 in Calm     96% 0 in meteobridge W/m2
04:45 48.4 °F 47.3 °F 29.77 in Calm     96% 0 in meteobridge W/m2
04:50 48.4 °F 47.3 °F 29.77 in Calm     96% 0 in meteobridge W/m2
04:55 48.4 °F 47.3 °F 29.77 in Calm     96% 0 in meteobridge W/m2
05:00 48.4 °F 47.3 °F 29.77 in Calm   -999 mph 96% 0 in meteobridge W/m2
05:05 48.4 °F 47.3 °F 29.77 in Calm     96% 0.01 in meteobridge W/m2
05:10 48.4 °F 47.3 °F 29.77 in Calm     96% 0.01 in meteobridge W/m2
05:15 48.2 °F 47.1 °F 29.77 in Calm     96% 0.01 in meteobridge W/m2
05:21 48 °F 46.9 °F 29.77 in Calm     96% 0.01 in meteobridge W/m2
05:26 48 °F 46.9 °F 29.77 in Calm     96% 0.01 in meteobridge W/m2
05:31 48.2 °F 47.1 °F 29.77 in Calm     96% 0.01 in meteobridge W/m2
05:36 48.4 °F 47.3 °F 29.77 in Calm     96% 0.01 in meteobridge W/m2
05:41 48.2 °F 47.1 °F 29.77 in Calm     96% 0.01 in meteobridge W/m2
05:46 48 °F 46.9 °F 29.77 in Calm     96% 0.01 in meteobridge W/m2
05:51 48 °F 46.9 °F 29.77 in Calm   -999 mph 96% 0.01 in meteobridge W/m2
05:56 48 °F 46.9 °F 29.77 in Calm   -999 mph 96% 0.01 in meteobridge W/m2
06:01 0.00 °F 0.00 °F 29.77 in Calm   -999 mph % 0.01 in meteobridge W/m2
06:06 0.00 °F 0.00 °F 29.77 in Calm   -999 mph % 0 in meteobridge W/m2
06:11 47.1 °F 46 °F 29.77 in Calm     96% 0 in meteobridge W/m2
06:16 46.9 °F 45.9 °F 29.77 in Calm     96% 0 in meteobridge W/m2
06:21 46.9 °F 45.9 °F 29.77 in Calm     96% 0 in meteobridge W/m2
06:26 46.8 °F 45.7 °F 29.78 in Calm     96% 0 in meteobridge W/m2
06:31 46.9 °F 45.9 °F 29.78 in Calm     96% 0 in meteobridge W/m2
06:36 46.9 °F 45.9 °F 29.78 in Calm   4 mph 96% 0 in meteobridge W/m2
06:41 47.3 °F 46.6 °F 29.78 in Calm     97% 0 in meteobridge W/m2
06:46 47.5 °F 46.4 °F 29.78 in Calm     96% 0 in meteobridge W/m2
06:51 47.7 °F 46.6 °F 29.78 in Calm     96% 0 in meteobridge W/m2
06:56 47.5 °F 46.4 °F 29.78 in Calm     96% 0 in meteobridge W/m2
07:01 47.7 °F 46.9 °F 29.78 in Calm     97% 0 in meteobridge W/m2
07:06 47.7 °F 46.9 °F 29.78 in Calm     97% 0 in meteobridge W/m2
07:11 47.5 °F 46.4 °F 29.79 in Calm     96% 0 in meteobridge W/m2
07:16 46.2 °F 44.8 °F 29.79 in Calm     95% 0 in meteobridge W/m2
07:21 45.3 °F 44.1 °F 29.79 in Calm     95% 0 in meteobridge W/m2
07:26 44.4 °F 43.2 °F 29.79 in Calm     95% 0 in meteobridge W/m2
07:31 43.9 °F 42.6 °F 29.79 in Calm     95% 0 in meteobridge W/m2
07:36 43.5 °F 42.3 °F 29.79 in Calm     95% 0 in meteobridge W/m2
07:41 43.5 °F 42.4 °F 29.78 in Calm     96% 0 in meteobridge W/m2
07:46 43.9 °F 42.8 °F 29.78 in Calm     96% 0 in meteobridge W/m2
07:51 44.1 °F 43.3 °F 29.78 in Calm     97% 0 in meteobridge W/m2
07:56 44.1 °F 43.3 °F 29.78 in Calm   -999 mph 97% 0 in meteobridge W/m2
08:01 44.1 °F 43.3 °F 29.79 in Calm   -999 mph 97% 0 in meteobridge W/m2
08:06 0.00 °F 0.00 °F 29.79 in Calm   -999 mph % 0 in meteobridge W/m2
08:11 44.2 °F 43.5 °F 29.79 in Calm     97% 0 in meteobridge W/m2
08:16 44.2 °F 43.5 °F 29.79 in Calm     97% 0 in meteobridge W/m2
08:21 43.9 °F 42.8 °F 29.79 in Calm     96% 0 in meteobridge W/m2
08:26 43.3 °F 42.3 °F 29.79 in Calm     96% 0 in meteobridge W/m2
08:31 43.2 °F 42.1 °F 29.80 in Calm     96% 0 in meteobridge W/m2
08:36 43.5 °F 42.8 °F 29.80 in Calm     97% 0 in meteobridge W/m2
08:41 44.2 °F 43.5 °F 29.80 in Calm     97% 0 in meteobridge W/m2
08:46 44.6 °F 43.9 °F 29.81 in Calm     97% 0 in meteobridge W/m2
08:51 45.7 °F 45 °F 29.80 in Calm     97% 0 in meteobridge W/m2
08:56 46 °F 45.3 °F 29.80 in Calm     97% 0 in meteobridge W/m2
09:01 46.8 °F 46 °F 29.81 in Calm     97% 0 in meteobridge W/m2
09:06 48.6 °F 47.7 °F 29.81 in Calm     97% 0 in meteobridge W/m2
09:11 50 °F 49.5 °F 29.81 in SE 4.3 mph 4 mph 98% 0 in meteobridge W/m2
09:16 50.9 °F 50.4 °F 29.81 in SE 2 mph 4 mph 98% 0 in meteobridge W/m2
09:21 51.4 °F 50.9 °F 29.80 in SE 2 mph 2 mph 98% 0 in meteobridge W/m2
09:26 52 °F 51.4 °F 29.80 in ESE 4.3 mph 6 mph 98% 0 in meteobridge W/m2
09:31 52.2 °F 51.6 °F 29.80 in SSE 1.1 mph 6 mph 98% 0 in meteobridge W/m2
09:36 52.3 °F 51.8 °F 29.80 in SE 3.1 mph 9 mph 98% 0 in meteobridge W/m2
09:41 52.2 °F 51.6 °F 29.80 in ESE 1.1 mph 3 mph 98% 0 in meteobridge W/m2
09:46 52.3 °F 51.4 °F 29.80 in ESE 1.1 mph 1 mph 97% 0 in meteobridge W/m2
09:51 52.7 °F 51.8 °F 29.80 in Calm     97% 0 in meteobridge W/m2
09:56 53.2 °F 52.3 °F 29.81 in Calm   3 mph 97% 0 in meteobridge W/m2
10:01 53.4 °F 52.9 °F 29.81 in SSE 1.1 mph 4 mph 98% 0 in meteobridge W/m2
10:06 54 °F 53.1 °F 29.81 in SSW 5.4 mph 7 mph 97% 0 in meteobridge W/m2
10:11 53.8 °F 52.9 °F 29.80 in SE 7.4 mph 10 mph 97% 0 in meteobridge W/m2
10:16 53.6 °F 52.7 °F 29.80 in SE 7.4 mph 9 mph 97% 0 in meteobridge W/m2
10:21 54 °F 53.1 °F 29.80 in SSE 2 mph 4 mph 97% 0 in meteobridge W/m2
10:26 54.9 °F 54 °F 29.80 in SE 7.4 mph 7 mph 97% 0 in meteobridge W/m2
10:31 54.9 °F 53.8 °F 29.80 in SSE 6.3 mph 6 mph 96% 0 in meteobridge W/m2
10:36 54.9 °F 53.4 °F 29.80 in SE 5.4 mph 7 mph 95% 0 in meteobridge W/m2
10:41 55.2 °F 53.8 °F 29.80 in South 7.4 mph 11 mph 95% 0 in meteobridge W/m2
10:46 55.6 °F 54 °F 29.80 in SE 4.3 mph 9 mph 94% 0 in meteobridge W/m2
10:51 55.8 °F 53.4 °F 29.80 in SSE 6.3 mph 11 mph 92% 0 in meteobridge W/m2
10:56 56.1 °F 53.8 °F 29.80 in SSE 2 mph 9 mph 92% 0 in meteobridge W/m2
11:01 56.5 °F 53.2 °F 29.80 in ESE 2 mph 5 mph 89% 0 in meteobridge W/m2
11:06 57 °F 53.8 °F 29.80 in SSE 4.3 mph 6 mph 89% 0 in meteobridge W/m2
11:11 57.7 °F 54.5 °F 29.79 in South 8.5 mph 10 mph 89% 0 in meteobridge W/m2
11:16 58.1 °F 54 °F 29.79 in East 1.1 mph 7 mph 86% 0 in meteobridge W/m2
11:21 58.6 °F 54.5 °F 29.79 in ESE 8.5 mph 9 mph 86% 0 in meteobridge W/m2
11:26 59.2 °F 54.7 °F 29.78 in SE 7.4 mph 9 mph 85% 0 in meteobridge W/m2
11:31 59.4 °F 54.1 °F 29.78 in East 11.6 mph 14 mph 83% 0 in meteobridge W/m2
11:36 59.2 °F 53.1 °F 29.77 in SE 4.3 mph 10 mph 80% 0 in meteobridge W/m2
11:41 59.4 °F 52.5 °F 29.77 in SE 6.3 mph 19 mph 78% 0 in meteobridge W/m2
11:46 59.4 °F 52.9 °F 29.77 in SSE 6.3 mph 15 mph 79% 0 in meteobridge W/m2
11:51 59.4 °F 52.9 °F 29.77 in SE 7.4 mph 16 mph 79% 0 in meteobridge W/m2
11:56 59.4 °F 53.2 °F 29.78 in SE 4.3 mph 7 mph 80% 0 in meteobridge W/m2
12:01 59.4 °F 53.2 °F 29.77 in SE 4.3 mph -999 mph 80% 0 in meteobridge W/m2
12:06 0.00 °F 0.00 °F 29.77 in Calm   -999 mph % 0 in meteobridge W/m2
12:11 60.4 °F 54.3 °F 29.76 in SSE 9.6 mph 11 mph 80% 0 in meteobridge W/m2
12:16 60.6 °F 54.1 °F 29.76 in ESE 5.4 mph 7 mph 79% 0 in meteobridge W/m2
12:21 61.5 °F 54.7 °F 29.75 in ESE 1.1 mph 6 mph 78% 0 in meteobridge W/m2
12:26 62.4 °F 55 °F 29.75 in SE 4.3 mph 6 mph 77% 0 in meteobridge W/m2
12:31 63 °F 55.2 °F 29.74 in East 5.4 mph 11 mph 76% 0 in meteobridge W/m2
12:36 62.6 °F 54.5 °F 29.74 in SSE 3.1 mph 11 mph 75% 0 in meteobridge W/m2
12:41 63.3 °F 55.6 °F 29.74 in SSW 2 mph 5 mph 76% 0 in meteobridge W/m2
12:46 63.7 °F 54.5 °F 29.73 in SE 6.3 mph 11 mph 72% 0 in meteobridge W/m2
12:51 63.9 °F 54.7 °F 29.73 in SE 4.3 mph 13 mph 72% 0 in meteobridge W/m2
12:56 64 °F 54.9 °F 29.72 in East 1.1 mph 9 mph 72% 0 in meteobridge W/m2
13:01 64.6 °F 55 °F 29.72 in NE 10.5 mph 11 mph 71% 0 in meteobridge W/m2
13:06 64.8 °F 54.7 °F 29.72 in SSE 7.4 mph 7 mph 70% 0 in meteobridge W/m2
13:12 64.8 °F 54 °F 29.71 in South 6.3 mph 13 mph 68% 0 in meteobridge W/m2
13:17 64.8 °F 53.6 °F 29.71 in SSE 6.3 mph 13 mph 67% 0 in meteobridge W/m2
13:22 64.9 °F 54.1 °F 29.71 in SE 8.5 mph 9 mph 68% 0 in meteobridge W/m2
13:27 65.1 °F 53.4 °F 29.70 in ESE 12.8 mph 13 mph 66% 0 in meteobridge W/m2
13:32 64.9 °F 53.2 °F 29.69 in ESE 8.5 mph 13 mph 66% 0 in meteobridge W/m2
13:37 64 °F 52.9 °F 29.69 in South 2 mph 9 mph 67% 0 in meteobridge W/m2
13:42 63.3 °F 52.5 °F 29.69 in SE 7.4 mph 11 mph 68% 0 in meteobridge W/m2
13:47 63.7 °F 53.8 °F 29.69 in SE 4.3 mph 9 mph 70% 0 in meteobridge W/m2
13:52 64.8 °F 55.2 °F 29.69 in SE 4.3 mph 5 mph 71% 0 in meteobridge W/m2
13:57 65.7 °F 54.9 °F 29.68 in SE 4.3 mph 12 mph 68% 0 in meteobridge W/m2
14:02 65.7 °F 54.9 °F 29.68 in SE 3.1 mph 10 mph 68% 0 in meteobridge W/m2
14:07 65.5 °F 53.8 °F 29.67 in SE 9.6 mph 15 mph 66% 0 in meteobridge W/m2
14:12 65.5 °F 55 °F 29.67 in ESE 4.3 mph 6 mph 69% 0 in meteobridge W/m2
14:17 65.8 °F 54.5 °F 29.67 in South 10.5 mph 13 mph 67% 0 in meteobridge W/m2
14:22 65.7 °F 54.3 °F 29.66 in SE 11.6 mph -999 mph 67% 0 in meteobridge W/m2
14:27 64.2 °F 53.8 °F 29.66 in SSE 9.6 mph 15 mph 69% 0 in meteobridge W/m2
14:32 64.2 °F 54.3 °F 29.66 in ESE 7.4 mph 16 mph 70% 0 in meteobridge W/m2
Louisburg, Kansas, USA
Compliments of Weather Underground - 4 mb